sensor_id;sensor_type;location;lat;lon;timestamp;P1;durP1;ratioP1;P2;durP2;ratioP2
20713;SDS011;10518;50.742;4.226;2024-02-21T00:01:41;21.33;;;7.23;;
20713;SDS011;10518;50.742;4.226;2024-02-21T00:04:07;23.10;;;7.53;;
20713;SDS011;10518;50.742;4.226;2024-02-21T00:06:32;23.77;;;7.13;;
20713;SDS011;10518;50.742;4.226;2024-02-21T00:08:58;22.90;;;7.27;;
20713;SDS011;10518;50.742;4.226;2024-02-21T00:11:24;20.53;;;6.63;;
20713;SDS011;10518;50.742;4.226;2024-02-21T00:13:49;19.53;;;6.80;;
20713;SDS011;10518;50.742;4.226;2024-02-21T00:16:17;25.10;;;7.47;;
20713;SDS011;10518;50.742;4.226;2024-02-21T00:18:43;22.40;;;7.10;;
20713;SDS011;10518;50.742;4.226;2024-02-21T00:21:09;19.83;;;6.80;;
20713;SDS011;10518;50.742;4.226;2024-02-21T00:23:39;18.77;;;6.70;;
20713;SDS011;10518;50.742;4.226;2024-02-21T00:26:05;15.10;;;6.73;;
20713;SDS011;10518;50.742;4.226;2024-02-21T00:28:31;16.77;;;6.80;;
20713;SDS011;10518;50.742;4.226;2024-02-21T00:30:56;17.37;;;6.70;;
20713;SDS011;10518;50.742;4.226;2024-02-21T00:33:22;21.97;;;6.30;;
20713;SDS011;10518;50.742;4.226;2024-02-21T00:35:48;16.83;;;5.83;;
20713;SDS011;10518;50.742;4.226;2024-02-21T00:38:13;19.20;;;6.83;;
20713;SDS011;10518;50.742;4.226;2024-02-21T00:40:39;23.27;;;6.53;;
20713;SDS011;10518;50.742;4.226;2024-02-21T00:43:04;28.43;;;6.80;;
20713;SDS011;10518;50.742;4.226;2024-02-21T00:45:31;25.37;;;6.87;;
20713;SDS011;10518;50.742;4.226;2024-02-21T00:47:56;23.87;;;7.20;;
20713;SDS011;10518;50.742;4.226;2024-02-21T00:50:22;17.97;;;6.37;;
20713;SDS011;10518;50.742;4.226;2024-02-21T00:52:47;19.50;;;6.17;;
20713;SDS011;10518;50.742;4.226;2024-02-21T00:55:13;15.27;;;6.33;;
20713;SDS011;10518;50.742;4.226;2024-02-21T00:57:39;15.73;;;6.67;;
20713;SDS011;10518;50.742;4.226;2024-02-21T01:00:05;23.63;;;7.37;;
20713;SDS011;10518;50.742;4.226;2024-02-21T01:02:31;20.20;;;7.47;;
20713;SDS011;10518;50.742;4.226;2024-02-21T01:04:57;23.40;;;7.90;;
20713;SDS011;10518;50.742;4.226;2024-02-21T01:07:23;24.77;;;8.27;;
20713;SDS011;10518;50.742;4.226;2024-02-21T01:09:49;25.20;;;7.80;;
20713;SDS011;10518;50.742;4.226;2024-02-21T01:12:16;25.03;;;8.23;;
20713;SDS011;10518;50.742;4.226;2024-02-21T01:14:42;23.90;;;7.93;;
20713;SDS011;10518;50.742;4.226;2024-02-21T01:17:07;26.23;;;7.73;;
20713;SDS011;10518;50.742;4.226;2024-02-21T01:19:33;23.40;;;8.27;;
20713;SDS011;10518;50.742;4.226;2024-02-21T01:21:59;25.93;;;9.10;;
20713;SDS011;10518;50.742;4.226;2024-02-21T01:24:24;21.40;;;7.67;;
20713;SDS011;10518;50.742;4.226;2024-02-21T01:26:50;19.03;;;8.30;;
20713;SDS011;10518;50.742;4.226;2024-02-21T01:29:16;22.07;;;8.50;;
20713;SDS011;10518;50.742;4.226;2024-02-21T01:31:41;21.63;;;8.43;;
20713;SDS011;10518;50.742;4.226;2024-02-21T01:34:07;20.00;;;8.47;;
20713;SDS011;10518;50.742;4.226;2024-02-21T01:36:33;22.57;;;8.17;;
20713;SDS011;10518;50.742;4.226;2024-02-21T01:38:58;17.83;;;7.33;;
20713;SDS011;10518;50.742;4.226;2024-02-21T01:41:24;18.20;;;8.10;;
20713;SDS011;10518;50.742;4.226;2024-02-21T01:43:49;22.60;;;7.57;;
20713;SDS011;10518;50.742;4.226;2024-02-21T01:46:15;23.93;;;9.17;;
20713;SDS011;10518;50.742;4.226;2024-02-21T01:48:41;24.57;;;8.20;;
20713;SDS011;10518;50.742;4.226;2024-02-21T01:51:06;29.97;;;8.73;;
20713;SDS011;10518;50.742;4.226;2024-02-21T01:53:37;19.03;;;8.03;;
20713;SDS011;10518;50.742;4.226;2024-02-21T01:56:07;24.77;;;8.33;;
20713;SDS011;10518;50.742;4.226;2024-02-21T01:58:33;21.73;;;7.77;;
20713;SDS011;10518;50.742;4.226;2024-02-21T02:01:05;25.37;;;8.27;;
20713;SDS011;10518;50.742;4.226;2024-02-21T02:03:31;29.07;;;8.23;;
20713;SDS011;10518;50.742;4.226;2024-02-21T02:05:57;21.20;;;8.20;;
20713;SDS011;10518;50.742;4.226;2024-02-21T02:08:22;21.63;;;7.60;;
20713;SDS011;10518;50.742;4.226;2024-02-21T02:10:48;26.03;;;8.10;;
20713;SDS011;10518;50.742;4.226;2024-02-21T02:13:14;24.07;;;8.53;;
20713;SDS011;10518;50.742;4.226;2024-02-21T02:15:41;17.37;;;7.40;;
20713;SDS011;10518;50.742;4.226;2024-02-21T02:18:07;20.30;;;8.00;;
20713;SDS011;10518;50.742;4.226;2024-02-21T02:20:34;19.87;;;8.73;;
20713;SDS011;10518;50.742;4.226;2024-02-21T02:23:00;21.60;;;8.20;;
20713;SDS011;10518;50.742;4.226;2024-02-21T02:25:28;24.80;;;8.20;;
20713;SDS011;10518;50.742;4.226;2024-02-21T02:27:54;19.43;;;8.37;;
20713;SDS011;10518;50.742;4.226;2024-02-21T02:30:19;27.57;;;9.23;;
20713;SDS011;10518;50.742;4.226;2024-02-21T02:32:45;25.70;;;7.70;;
20713;SDS011;10518;50.742;4.226;2024-02-21T02:35:14;18.37;;;8.03;;
20713;SDS011;10518;50.742;4.226;2024-02-21T02:37:39;18.33;;;8.07;;
20713;SDS011;10518;50.742;4.226;2024-02-21T02:40:06;25.07;;;9.00;;
20713;SDS011;10518;50.742;4.226;2024-02-21T02:42:32;20.53;;;7.93;;
20713;SDS011;10518;50.742;4.226;2024-02-21T02:44:57;25.30;;;7.90;;
20713;SDS011;10518;50.742;4.226;2024-02-21T02:47:23;22.07;;;8.00;;
20713;SDS011;10518;50.742;4.226;2024-02-21T02:49:48;17.83;;;7.37;;
20713;SDS011;10518;50.742;4.226;2024-02-21T02:52:16;23.57;;;7.80;;
20713;SDS011;10518;50.742;4.226;2024-02-21T02:54:42;21.83;;;8.43;;
20713;SDS011;10518;50.742;4.226;2024-02-21T02:57:08;20.77;;;8.27;;
20713;SDS011;10518;50.742;4.226;2024-02-21T02:59:34;24.17;;;7.33;;
20713;SDS011;10518;50.742;4.226;2024-02-21T03:02:00;18.37;;;7.90;;
20713;SDS011;10518;50.742;4.226;2024-02-21T03:04:26;22.37;;;7.83;;
20713;SDS011;10518;50.742;4.226;2024-02-21T03:06:51;29.43;;;8.87;;
20713;SDS011;10518;50.742;4.226;2024-02-21T03:09:17;21.50;;;8.00;;
20713;SDS011;10518;50.742;4.226;2024-02-21T03:11:42;20.37;;;8.13;;
20713;SDS011;10518;50.742;4.226;2024-02-21T03:14:09;26.23;;;8.97;;
20713;SDS011;10518;50.742;4.226;2024-02-21T03:16:35;23.87;;;8.27;;
20713;SDS011;10518;50.742;4.226;2024-02-21T03:19:00;21.27;;;8.20;;
20713;SDS011;10518;50.742;4.226;2024-02-21T03:21:26;22.30;;;8.57;;
20713;SDS011;10518;50.742;4.226;2024-02-21T03:23:51;23.63;;;8.67;;
20713;SDS011;10518;50.742;4.226;2024-02-21T03:26:17;22.53;;;8.90;;
20713;SDS011;10518;50.742;4.226;2024-02-21T03:28:43;21.50;;;8.93;;
20713;SDS011;10518;50.742;4.226;2024-02-21T03:31:13;21.57;;;8.63;;
20713;SDS011;10518;50.742;4.226;2024-02-21T03:33:39;26.57;;;8.67;;
20713;SDS011;10518;50.742;4.226;2024-02-21T03:36:12;26.87;;;8.50;;
20713;SDS011;10518;50.742;4.226;2024-02-21T03:38:39;22.90;;;8.53;;
20713;SDS011;10518;50.742;4.226;2024-02-21T03:41:05;24.83;;;8.43;;
20713;SDS011;10518;50.742;4.226;2024-02-21T03:43:30;19.10;;;8.33;;
20713;SDS011;10518;50.742;4.226;2024-02-21T03:45:56;23.53;;;8.30;;
20713;SDS011;10518;50.742;4.226;2024-02-21T03:48:22;16.37;;;7.93;;
20713;SDS011;10518;50.742;4.226;2024-02-21T03:50:47;20.73;;;8.30;;
20713;SDS011;10518;50.742;4.226;2024-02-21T03:53:13;19.50;;;8.67;;
20713;SDS011;10518;50.742;4.226;2024-02-21T03:55:38;21.60;;;9.37;;
20713;SDS011;10518;50.742;4.226;2024-02-21T03:58:04;17.17;;;7.63;;
20713;SDS011;10518;50.742;4.226;2024-02-21T04:00:29;18.60;;;7.93;;
20713;SDS011;10518;50.742;4.226;2024-02-21T04:02:55;16.70;;;8.17;;
20713;SDS011;10518;50.742;4.226;2024-02-21T04:05:20;21.90;;;8.53;;
20713;SDS011;10518;50.742;4.226;2024-02-21T04:07:46;25.67;;;8.07;;
20713;SDS011;10518;50.742;4.226;2024-02-21T04:10:12;20.13;;;8.03;;
20713;SDS011;10518;50.742;4.226;2024-02-21T04:12:37;27.93;;;8.20;;
20713;SDS011;10518;50.742;4.226;2024-02-21T04:15:03;22.00;;;8.43;;
20713;SDS011;10518;50.742;4.226;2024-02-21T04:17:29;24.30;;;8.23;;
20713;SDS011;10518;50.742;4.226;2024-02-21T04:20:01;20.27;;;7.40;;
20713;SDS011;10518;50.742;4.226;2024-02-21T04:22:30;20.07;;;8.87;;
20713;SDS011;10518;50.742;4.226;2024-02-21T04:24:57;24.73;;;8.53;;
20713;SDS011;10518;50.742;4.226;2024-02-21T04:27:22;21.70;;;8.80;;
20713;SDS011;10518;50.742;4.226;2024-02-21T04:29:48;20.97;;;8.60;;
20713;SDS011;10518;50.742;4.226;2024-02-21T04:32:13;18.20;;;8.63;;
20713;SDS011;10518;50.742;4.226;2024-02-21T04:34:40;17.70;;;8.30;;
20713;SDS011;10518;50.742;4.226;2024-02-21T04:37:06;22.40;;;8.60;;
20713;SDS011;10518;50.742;4.226;2024-02-21T04:39:32;26.90;;;8.50;;
20713;SDS011;10518;50.742;4.226;2024-02-21T04:41:57;25.90;;;8.57;;
20713;SDS011;10518;50.742;4.226;2024-02-21T04:44:23;18.67;;;8.03;;
20713;SDS011;10518;50.742;4.226;2024-02-21T04:46:48;19.37;;;8.47;;
20713;SDS011;10518;50.742;4.226;2024-02-21T04:49:14;19.97;;;7.57;;
20713;SDS011;10518;50.742;4.226;2024-02-21T04:51:40;24.53;;;8.80;;
20713;SDS011;10518;50.742;4.226;2024-02-21T04:54:06;16.83;;;7.33;;
20713;SDS011;10518;50.742;4.226;2024-02-21T04:56:31;17.00;;;7.57;;
20713;SDS011;10518;50.742;4.226;2024-02-21T04:58:57;15.13;;;6.80;;
20713;SDS011;10518;50.742;4.226;2024-02-21T05:01:23;23.73;;;7.80;;
20713;SDS011;10518;50.742;4.226;2024-02-21T05:03:48;19.57;;;7.23;;
20713;SDS011;10518;50.742;4.226;2024-02-21T05:06:14;19.03;;;7.97;;
20713;SDS011;10518;50.742;4.226;2024-02-21T05:08:40;17.87;;;7.27;;
20713;SDS011;10518;50.742;4.226;2024-02-21T05:11:05;18.97;;;6.70;;
20713;SDS011;10518;50.742;4.226;2024-02-21T05:13:32;18.80;;;6.83;;
20713;SDS011;10518;50.742;4.226;2024-02-21T05:15:57;20.80;;;7.37;;
20713;SDS011;10518;50.742;4.226;2024-02-21T05:18:26;18.00;;;6.40;;
20713;SDS011;10518;50.742;4.226;2024-02-21T05:20:52;15.00;;;6.97;;
20713;SDS011;10518;50.742;4.226;2024-02-21T05:23:17;20.03;;;7.13;;
20713;SDS011;10518;50.742;4.226;2024-02-21T05:25:43;16.50;;;6.87;;
20713;SDS011;10518;50.742;4.226;2024-02-21T05:28:08;12.60;;;6.47;;
20713;SDS011;10518;50.742;4.226;2024-02-21T05:30:34;15.57;;;6.27;;
20713;SDS011;10518;50.742;4.226;2024-02-21T05:33:03;12.07;;;5.60;;
20713;SDS011;10518;50.742;4.226;2024-02-21T05:35:30;17.83;;;5.83;;
20713;SDS011;10518;50.742;4.226;2024-02-21T05:37:56;12.57;;;5.90;;
20713;SDS011;10518;50.742;4.226;2024-02-21T05:40:21;17.77;;;5.77;;
20713;SDS011;10518;50.742;4.226;2024-02-21T05:42:47;13.67;;;5.67;;
20713;SDS011;10518;50.742;4.226;2024-02-21T05:45:12;15.20;;;5.03;;
20713;SDS011;10518;50.742;4.226;2024-02-21T05:47:39;14.60;;;5.63;;
20713;SDS011;10518;50.742;4.226;2024-02-21T05:50:05;11.30;;;5.20;;
20713;SDS011;10518;50.742;4.226;2024-02-21T05:52:31;11.53;;;5.00;;
20713;SDS011;10518;50.742;4.226;2024-02-21T05:54:56;13.93;;;5.70;;
20713;SDS011;10518;50.742;4.226;2024-02-21T05:57:22;14.70;;;6.17;;
20713;SDS011;10518;50.742;4.226;2024-02-21T05:59:48;13.80;;;5.37;;
20713;SDS011;10518;50.742;4.226;2024-02-21T06:02:13;10.83;;;5.57;;
20713;SDS011;10518;50.742;4.226;2024-02-21T06:04:39;11.17;;;5.20;;
20713;SDS011;10518;50.742;4.226;2024-02-21T06:07:05;13.00;;;5.37;;
20713;SDS011;10518;50.742;4.226;2024-02-21T06:09:30;18.20;;;6.40;;
20713;SDS011;10518;50.742;4.226;2024-02-21T06:11:57;16.93;;;5.47;;
20713;SDS011;10518;50.742;4.226;2024-02-21T06:14:22;15.97;;;6.27;;
20713;SDS011;10518;50.742;4.226;2024-02-21T06:16:48;14.73;;;5.73;;
20713;SDS011;10518;50.742;4.226;2024-02-21T06:19:13;12.23;;;6.27;;
20713;SDS011;10518;50.742;4.226;2024-02-21T06:21:39;19.30;;;6.93;;
20713;SDS011;10518;50.742;4.226;2024-02-21T06:24:04;18.27;;;7.10;;
20713;SDS011;10518;50.742;4.226;2024-02-21T06:26:30;16.87;;;6.70;;
20713;SDS011;10518;50.742;4.226;2024-02-21T06:28:56;21.17;;;7.00;;
20713;SDS011;10518;50.742;4.226;2024-02-21T06:31:22;18.17;;;7.73;;
20713;SDS011;10518;50.742;4.226;2024-02-21T06:33:47;17.30;;;7.40;;
20713;SDS011;10518;50.742;4.226;2024-02-21T06:36:13;11.73;;;6.60;;
20713;SDS011;10518;50.742;4.226;2024-02-21T06:38:39;16.77;;;7.50;;
20713;SDS011;10518;50.742;4.226;2024-02-21T06:41:04;18.23;;;7.00;;
20713;SDS011;10518;50.742;4.226;2024-02-21T06:43:30;14.43;;;6.53;;
20713;SDS011;10518;50.742;4.226;2024-02-21T06:45:56;17.80;;;6.37;;
20713;SDS011;10518;50.742;4.226;2024-02-21T06:48:22;11.23;;;6.03;;
20713;SDS011;10518;50.742;4.226;2024-02-21T06:50:47;15.43;;;6.73;;
20713;SDS011;10518;50.742;4.226;2024-02-21T06:53:13;17.30;;;7.23;;
20713;SDS011;10518;50.742;4.226;2024-02-21T06:55:39;17.40;;;6.83;;
20713;SDS011;10518;50.742;4.226;2024-02-21T06:58:10;18.50;;;7.70;;
20713;SDS011;10518;50.742;4.226;2024-02-21T07:00:36;15.97;;;7.37;;
20713;SDS011;10518;50.742;4.226;2024-02-21T07:03:03;15.33;;;6.90;;
20713;SDS011;10518;50.742;4.226;2024-02-21T07:05:29;13.60;;;7.07;;
20713;SDS011;10518;50.742;4.226;2024-02-21T07:07:54;16.83;;;7.70;;
20713;SDS011;10518;50.742;4.226;2024-02-21T07:10:20;18.40;;;7.50;;
20713;SDS011;10518;50.742;4.226;2024-02-21T07:12:45;21.97;;;7.43;;
20713;SDS011;10518;50.742;4.226;2024-02-21T07:15:11;18.63;;;7.80;;
20713;SDS011;10518;50.742;4.226;2024-02-21T07:17:36;19.23;;;7.67;;
20713;SDS011;10518;50.742;4.226;2024-02-21T07:20:02;20.07;;;7.63;;
20713;SDS011;10518;50.742;4.226;2024-02-21T07:22:27;16.53;;;6.87;;
20713;SDS011;10518;50.742;4.226;2024-02-21T07:24:53;16.10;;;7.27;;
20713;SDS011;10518;50.742;4.226;2024-02-21T07:27:18;16.27;;;7.17;;
20713;SDS011;10518;50.742;4.226;2024-02-21T07:29:44;14.53;;;6.77;;
20713;SDS011;10518;50.742;4.226;2024-02-21T07:32:12;14.03;;;6.87;;
20713;SDS011;10518;50.742;4.226;2024-02-21T07:34:38;15.77;;;6.87;;
20713;SDS011;10518;50.742;4.226;2024-02-21T07:37:03;16.17;;;7.00;;
20713;SDS011;10518;50.742;4.226;2024-02-21T07:39:29;17.97;;;6.90;;
20713;SDS011;10518;50.742;4.226;2024-02-21T07:41:54;14.17;;;6.93;;
20713;SDS011;10518;50.742;4.226;2024-02-21T07:44:20;14.83;;;6.87;;
20713;SDS011;10518;50.742;4.226;2024-02-21T07:46:45;15.83;;;6.83;;
20713;SDS011;10518;50.742;4.226;2024-02-21T07:49:11;16.60;;;6.47;;
20713;SDS011;10518;50.742;4.226;2024-02-21T07:51:36;13.80;;;6.77;;
20713;SDS011;10518;50.742;4.226;2024-02-21T07:54:02;16.10;;;6.70;;
20713;SDS011;10518;50.742;4.226;2024-02-21T07:56:29;16.00;;;6.73;;
20713;SDS011;10518;50.742;4.226;2024-02-21T07:58:55;15.30;;;6.20;;
20713;SDS011;10518;50.742;4.226;2024-02-21T08:01:20;14.00;;;5.80;;
20713;SDS011;10518;50.742;4.226;2024-02-21T08:03:46;19.10;;;5.93;;
20713;SDS011;10518;50.742;4.226;2024-02-21T08:06:12;13.33;;;5.67;;
20713;SDS011;10518;50.742;4.226;2024-02-21T08:08:38;14.73;;;5.50;;
20713;SDS011;10518;50.742;4.226;2024-02-21T08:11:04;19.53;;;5.90;;
20713;SDS011;10518;50.742;4.226;2024-02-21T08:13:30;22.77;;;5.30;;
20713;SDS011;10518;50.742;4.226;2024-02-21T08:15:56;20.37;;;5.80;;
20713;SDS011;10518;50.742;4.226;2024-02-21T08:18:22;14.87;;;5.77;;
20713;SDS011;10518;50.742;4.226;2024-02-21T08:20:48;13.43;;;5.13;;
20713;SDS011;10518;50.742;4.226;2024-02-21T08:23:17;10.83;;;5.17;;
20713;SDS011;10518;50.742;4.226;2024-02-21T08:25:44;11.87;;;4.93;;
20713;SDS011;10518;50.742;4.226;2024-02-21T08:28:09;13.83;;;4.70;;
20713;SDS011;10518;50.742;4.226;2024-02-21T08:30:35;16.47;;;5.70;;
20713;SDS011;10518;50.742;4.226;2024-02-21T08:33:01;14.33;;;4.33;;
20713;SDS011;10518;50.742;4.226;2024-02-21T08:35:26;13.67;;;4.67;;
20713;SDS011;10518;50.742;4.226;2024-02-21T08:37:52;14.60;;;5.00;;
20713;SDS011;10518;50.742;4.226;2024-02-21T08:40:17;8.70;;;4.20;;
20713;SDS011;10518;50.742;4.226;2024-02-21T08:42:45;9.50;;;4.07;;
20713;SDS011;10518;50.742;4.226;2024-02-21T08:45:11;12.37;;;4.10;;
20713;SDS011;10518;50.742;4.226;2024-02-21T08:47:40;13.93;;;4.53;;
20713;SDS011;10518;50.742;4.226;2024-02-21T08:50:06;11.10;;;4.70;;
20713;SDS011;10518;50.742;4.226;2024-02-21T08:52:32;9.67;;;4.37;;
20713;SDS011;10518;50.742;4.226;2024-02-21T08:54:58;12.37;;;4.63;;
20713;SDS011;10518;50.742;4.226;2024-02-21T08:57:23;9.40;;;4.33;;
20713;SDS011;10518;50.742;4.226;2024-02-21T08:59:49;7.97;;;4.53;;
20713;SDS011;10518;50.742;4.226;2024-02-21T09:02:15;12.83;;;4.27;;
20713;SDS011;10518;50.742;4.226;2024-02-21T09:04:43;7.37;;;4.27;;
20713;SDS011;10518;50.742;4.226;2024-02-21T09:07:09;14.03;;;4.07;;
20713;SDS011;10518;50.742;4.226;2024-02-21T09:09:35;11.70;;;4.37;;
20713;SDS011;10518;50.742;4.226;2024-02-21T09:12:03;12.30;;;4.53;;
20713;SDS011;10518;50.742;4.226;2024-02-21T09:14:32;11.93;;;4.40;;
20713;SDS011;10518;50.742;4.226;2024-02-21T09:16:58;7.47;;;4.23;;
20713;SDS011;10518;50.742;4.226;2024-02-21T09:19:24;14.80;;;4.43;;
20713;SDS011;10518;50.742;4.226;2024-02-21T09:21:49;9.73;;;4.70;;
20713;SDS011;10518;50.742;4.226;2024-02-21T09:24:15;9.93;;;4.70;;
20713;SDS011;10518;50.742;4.226;2024-02-21T09:26:40;13.60;;;4.27;;
20713;SDS011;10518;50.742;4.226;2024-02-21T09:29:06;11.00;;;4.70;;
20713;SDS011;10518;50.742;4.226;2024-02-21T09:31:32;13.73;;;4.97;;
20713;SDS011;10518;50.742;4.226;2024-02-21T09:33:58;8.33;;;4.23;;
20713;SDS011;10518;50.742;4.226;2024-02-21T09:36:23;11.20;;;4.50;;
20713;SDS011;10518;50.742;4.226;2024-02-21T09:38:49;10.60;;;4.43;;
20713;SDS011;10518;50.742;4.226;2024-02-21T09:41:18;10.83;;;4.50;;
20713;SDS011;10518;50.742;4.226;2024-02-21T09:43:52;11.77;;;4.40;;
20713;SDS011;10518;50.742;4.226;2024-02-21T09:46:19;15.37;;;3.93;;
20713;SDS011;10518;50.742;4.226;2024-02-21T09:49:25;8.23;;;3.60;;
20713;SDS011;10518;50.742;4.226;2024-02-21T09:51:49;13.47;;;4.10;;
20713;SDS011;10518;50.742;4.226;2024-02-21T09:54:17;7.83;;;4.40;;
20713;SDS011;10518;50.742;4.226;2024-02-21T09:56:47;11.57;;;4.03;;
20713;SDS011;10518;50.742;4.226;2024-02-21T09:59:14;13.50;;;4.27;;
20713;SDS011;10518;50.742;4.226;2024-02-21T10:01:42;9.83;;;3.63;;
20713;SDS011;10518;50.742;4.226;2024-02-21T10:04:11;14.47;;;4.27;;
20713;SDS011;10518;50.742;4.226;2024-02-21T10:06:37;8.77;;;3.93;;
20713;SDS011;10518;50.742;4.226;2024-02-21T10:09:04;13.73;;;4.43;;
20713;SDS011;10518;50.742;4.226;2024-02-21T10:11:31;11.50;;;3.97;;
20713;SDS011;10518;50.742;4.226;2024-02-21T10:14:06;13.37;;;4.57;;
20713;SDS011;10518;50.742;4.226;2024-02-21T10:16:32;12.63;;;4.37;;
20713;SDS011;10518;50.742;4.226;2024-02-21T10:18:58;8.73;;;4.47;;
20713;SDS011;10518;50.742;4.226;2024-02-21T10:21:24;12.87;;;3.90;;
20713;SDS011;10518;50.742;4.226;2024-02-21T10:23:50;10.60;;;4.07;;
20713;SDS011;10518;50.742;4.226;2024-02-21T10:26:17;8.73;;;4.63;;
20713;SDS011;10518;50.742;4.226;2024-02-21T10:28:44;7.53;;;4.13;;
20713;SDS011;10518;50.742;4.226;2024-02-21T10:31:20;14.97;;;4.07;;
20713;SDS011;10518;50.742;4.226;2024-02-21T10:33:53;6.93;;;3.70;;
20713;SDS011;10518;50.742;4.226;2024-02-21T10:36:20;9.93;;;3.60;;
20713;SDS011;10518;50.742;4.226;2024-02-21T10:38:45;11.70;;;3.93;;
20713;SDS011;10518;50.742;4.226;2024-02-21T10:41:12;9.73;;;3.83;;
20713;SDS011;10518;50.742;4.226;2024-02-21T10:43:40;11.73;;;3.97;;
20713;SDS011;10518;50.742;4.226;2024-02-21T10:46:06;10.27;;;3.80;;
20713;SDS011;10518;50.742;4.226;2024-02-21T10:48:39;13.03;;;4.30;;
20713;SDS011;10518;50.742;4.226;2024-02-21T10:56:38;8.13;;;3.77;;
20713;SDS011;10518;50.742;4.226;2024-02-21T10:59:05;10.33;;;3.70;;
20713;SDS011;10518;50.742;4.226;2024-02-21T11:01:31;7.93;;;3.63;;
20713;SDS011;10518;50.742;4.226;2024-02-21T11:04:01;9.27;;;3.77;;
20713;SDS011;10518;50.742;4.226;2024-02-21T11:06:29;9.97;;;3.60;;
20713;SDS011;10518;50.742;4.226;2024-02-21T11:09:01;7.53;;;3.53;;
20713;SDS011;10518;50.742;4.226;2024-02-21T11:11:34;9.37;;;3.53;;
20713;SDS011;10518;50.742;4.226;2024-02-21T11:14:04;9.10;;;3.57;;
20713;SDS011;10518;50.742;4.226;2024-02-21T11:16:36;7.87;;;3.60;;
20713;SDS011;10518;50.742;4.226;2024-02-21T11:19:07;9.37;;;4.03;;
20713;SDS011;10518;50.742;4.226;2024-02-21T11:21:35;10.60;;;4.27;;
20713;SDS011;10518;50.742;4.226;2024-02-21T11:24:01;11.57;;;3.30;;
20713;SDS011;10518;50.742;4.226;2024-02-21T11:26:28;7.97;;;3.53;;
20713;SDS011;10518;50.742;4.226;2024-02-21T11:28:56;9.03;;;3.73;;
20713;SDS011;10518;50.742;4.226;2024-02-21T11:31:22;8.80;;;3.50;;
20713;SDS011;10518;50.742;4.226;2024-02-21T11:33:48;9.50;;;3.30;;
20713;SDS011;10518;50.742;4.226;2024-02-21T11:36:26;10.50;;;3.73;;
20713;SDS011;10518;50.742;4.226;2024-02-21T11:38:52;10.25;;;3.45;;
20713;SDS011;10518;50.742;4.226;2024-02-21T11:41:18;10.00;;;3.67;;
20713;SDS011;10518;50.742;4.226;2024-02-21T11:43:45;8.33;;;4.07;;
20713;SDS011;10518;50.742;4.226;2024-02-21T11:46:12;13.03;;;3.57;;
20713;SDS011;10518;50.742;4.226;2024-02-21T11:48:39;7.57;;;3.33;;
20713;SDS011;10518;50.742;4.226;2024-02-21T11:51:06;8.63;;;4.23;;
20713;SDS011;10518;50.742;4.226;2024-02-21T11:53:32;7.37;;;3.37;;
20713;SDS011;10518;50.742;4.226;2024-02-21T11:55:58;9.20;;;3.83;;
20713;SDS011;10518;50.742;4.226;2024-02-21T11:58:24;8.27;;;3.90;;
20713;SDS011;10518;50.742;4.226;2024-02-21T12:00:50;9.50;;;3.77;;
20713;SDS011;10518;50.742;4.226;2024-02-21T12:03:16;9.17;;;3.90;;
20713;SDS011;10518;50.742;4.226;2024-02-21T12:05:41;8.53;;;4.60;;
20713;SDS011;10518;50.742;4.226;2024-02-21T12:08:07;10.77;;;4.30;;
20713;SDS011;10518;50.742;4.226;2024-02-21T12:10:33;8.83;;;4.00;;
20713;SDS011;10518;50.742;4.226;2024-02-21T12:13:09;9.93;;;4.30;;
20713;SDS011;10518;50.742;4.226;2024-02-21T12:15:35;8.90;;;4.10;;
20713;SDS011;10518;50.742;4.226;2024-02-21T12:18:01;12.03;;;4.10;;
20713;SDS011;10518;50.742;4.226;2024-02-21T12:20:26;7.93;;;3.90;;
20713;SDS011;10518;50.742;4.226;2024-02-21T12:22:52;8.43;;;3.93;;
20713;SDS011;10518;50.742;4.226;2024-02-21T12:25:19;10.48;;;4.47;;
20713;SDS011;10518;50.742;4.226;2024-02-21T12:27:52;8.63;;;4.13;;
20713;SDS011;10518;50.742;4.226;2024-02-21T12:30:18;6.13;;;3.57;;
20713;SDS011;10518;50.742;4.226;2024-02-21T12:32:44;9.83;;;3.70;;
20713;SDS011;10518;50.742;4.226;2024-02-21T12:35:10;8.90;;;3.60;;
20713;SDS011;10518;50.742;4.226;2024-02-21T12:37:36;8.70;;;4.17;;
20713;SDS011;10518;50.742;4.226;2024-02-21T12:40:03;7.77;;;4.23;;
20713;SDS011;10518;50.742;4.226;2024-02-21T12:42:31;8.57;;;4.10;;
20713;SDS011;10518;50.742;4.226;2024-02-21T12:44:58;8.40;;;4.00;;
20713;SDS011;10518;50.742;4.226;2024-02-21T12:47:24;11.05;;;4.00;;
20713;SDS011;10518;50.742;4.226;2024-02-21T12:49:51;12.52;;;5.60;;
20713;SDS011;10518;50.742;4.226;2024-02-21T12:52:17;8.93;;;4.10;;
20713;SDS011;10518;50.742;4.226;2024-02-21T12:54:43;9.40;;;4.03;;
20713;SDS011;10518;50.742;4.226;2024-02-21T12:57:08;9.95;;;4.07;;
20713;SDS011;10518;50.742;4.226;2024-02-21T12:59:34;9.55;;;3.70;;
20713;SDS011;10518;50.742;4.226;2024-02-21T13:01:59;9.38;;;3.90;;
20713;SDS011;10518;50.742;4.226;2024-02-21T13:04:25;12.73;;;4.45;;
20713;SDS011;10518;50.742;4.226;2024-02-21T13:06:51;6.80;;;4.37;;
20713;SDS011;10518;50.742;4.226;2024-02-21T13:09:16;11.10;;;4.30;;
20713;SDS011;10518;50.742;4.226;2024-02-21T13:11:43;8.95;;;3.55;;
20713;SDS011;10518;50.742;4.226;2024-02-21T13:14:11;9.63;;;3.97;;
20713;SDS011;10518;50.742;4.226;2024-02-21T13:16:36;8.10;;;4.05;;
20713;SDS011;10518;50.742;4.226;2024-02-21T13:19:04;7.38;;;3.85;;
20713;SDS011;10518;50.742;4.226;2024-02-21T13:21:31;9.20;;;4.35;;
20713;SDS011;10518;50.742;4.226;2024-02-21T13:23:56;10.07;;;3.65;;
20713;SDS011;10518;50.742;4.226;2024-02-21T13:26:22;11.05;;;4.30;;
20713;SDS011;10518;50.742;4.226;2024-02-21T13:28:48;8.05;;;4.03;;
20713;SDS011;10518;50.742;4.226;2024-02-21T13:31:14;8.18;;;3.88;;
20713;SDS011;10518;50.742;4.226;2024-02-21T13:33:39;11.43;;;4.10;;
20713;SDS011;10518;50.742;4.226;2024-02-21T13:36:05;11.90;;;3.90;;
20713;SDS011;10518;50.742;4.226;2024-02-21T13:38:31;10.50;;;4.43;;
20713;SDS011;10518;50.742;4.226;2024-02-21T13:40:56;7.30;;;3.65;;
20713;SDS011;10518;50.742;4.226;2024-02-21T13:43:22;6.47;;;3.90;;
20713;SDS011;10518;50.742;4.226;2024-02-21T13:45:57;9.93;;;4.33;;
20713;SDS011;10518;50.742;4.226;2024-02-21T13:48:24;12.73;;;4.03;;
20713;SDS011;10518;50.742;4.226;2024-02-21T13:50:50;13.20;;;4.23;;
20713;SDS011;10518;50.742;4.226;2024-02-21T13:53:15;6.67;;;3.90;;
20713;SDS011;10518;50.742;4.226;2024-02-21T13:55:43;6.97;;;3.70;;
20713;SDS011;10518;50.742;4.226;2024-02-21T13:58:12;8.33;;;3.83;;
20713;SDS011;10518;50.742;4.226;2024-02-21T14:00:38;11.30;;;4.27;;
20713;SDS011;10518;50.742;4.226;2024-02-21T14:03:03;7.70;;;3.93;;
20713;SDS011;10518;50.742;4.226;2024-02-21T14:05:29;8.43;;;4.40;;
20713;SDS011;10518;50.742;4.226;2024-02-21T14:07:55;15.13;;;4.37;;
20713;SDS011;10518;50.742;4.226;2024-02-21T14:10:21;8.93;;;4.23;;
20713;SDS011;10518;50.742;4.226;2024-02-21T14:12:47;11.07;;;4.40;;
20713;SDS011;10518;50.742;4.226;2024-02-21T14:15:13;7.33;;;4.07;;
20713;SDS011;10518;50.742;4.226;2024-02-21T14:17:39;8.90;;;3.90;;
20713;SDS011;10518;50.742;4.226;2024-02-21T14:20:05;7.67;;;4.17;;
20713;SDS011;10518;50.742;4.226;2024-02-21T14:22:34;9.20;;;3.80;;
20713;SDS011;10518;50.742;4.226;2024-02-21T14:25:00;8.90;;;3.97;;
20713;SDS011;10518;50.742;4.226;2024-02-21T14:27:25;9.90;;;4.50;;
20713;SDS011;10518;50.742;4.226;2024-02-21T14:29:51;10.77;;;4.30;;
20713;SDS011;10518;50.742;4.226;2024-02-21T14:32:17;10.67;;;4.33;;
20713;SDS011;10518;50.742;4.226;2024-02-21T14:34:42;9.27;;;4.43;;
20713;SDS011;10518;50.742;4.226;2024-02-21T14:37:08;10.13;;;4.00;;
20713;SDS011;10518;50.742;4.226;2024-02-21T14:39:33;9.23;;;4.63;;